Historique des mesures à Cassis (13260), France
Quotidien Résumé Avril 1, 2017 Unités:  Métrique    US   Métrique/US
« Précédent (Jour)
Suivant (Jour) »
Quotidien Hebdomadaire Mensuel Annuel Période au choix
  Maximum: Minimum: Moyenne:
Température: TemperatureC °C 9.6 °C 12 °C
Point de rosée: DewpointC °C 5.8 °C 7.9 °C
Humidité: Humidity % 61 % 73 %
Vitesse du vent: 0 km/h 0 km/h 5.5 km/h
Rafales: 0 km/h - -
Vent:- - South
Pression: PressurehPa hPa 1009.0 hPa -
Précipitations: 13.0 mm    
Historical Graphs
 
 
Mesures pour : Avril 1, 2017
Heure Temperature Point de rosée Pression Vent Vitesse du vent Rafales Humidité Pluie (par heure) Conditions
TemperatureC °C DewpointC °C PressurehPa hPa Calm     Humidity % HourlyPrecipMM mm SoftwareType W/m2
00:11 14.2 °C 9.2 °C 1015.5 hPa Calm     72 % 0.0 mm open2300-1.11 W/m2
01:11 13.6 °C 8.2 °C 1014.8 hPa Calm     70 % 0.0 mm open2300-1.11 W/m2
02:11 13.4 °C 6.2 °C 1013.8 hPa NNE 2.3 km/h 2.3 km/h 62 % 0.0 mm open2300-1.11 W/m2
03:11 13.2 °C 5.8 °C 1013.4 hPa ENE 3.4 km/h 3.4 km/h 61 % 0.0 mm open2300-1.11 W/m2
04:11 12.7 °C 7.9 °C 1012.4 hPa North 2.3 km/h 11.6 km/h 73 % 0.0 mm open2300-1.11 W/m2
05:11 12.2 °C 7.3 °C 1012.1 hPa Calm     72 % 0.0 mm open2300-1.11 W/m2
06:11 12.6 °C 7.7 °C 1012.1 hPa Calm     72 % 0.0 mm open2300-1.11 W/m2
07:11 12.9 °C 8.7 °C 1011.4 hPa ESE 6.4 km/h 6.4 km/h 76 % 0.0 mm open2300-1.11 W/m2
08:11 12.9 °C 9.1 °C 1011.1 hPa ESE 8 km/h 10.3 km/h 78 % 0.0 mm open2300-1.11 W/m2
09:11 13.4 °C 9.2 °C 1010.7 hPa ESE 2.3 km/h 4.7 km/h 76 % 0.0 mm open2300-1.11 W/m2
10:11 13.8 °C 8.4 °C 1010.7 hPa Calm   6.4 km/h 70 % 0.0 mm open2300-1.11 W/m2
11:11 14.8 °C 8.1 °C 1010.7 hPa SSE 8.9 km/h 11.6 km/h 64 % 0.0 mm open2300-1.11 W/m2
12:11 14.6 °C 8.1 °C 1011.1 hPa ESE 4.2 km/h 6.4 km/h 65 % 0.0 mm open2300-1.11 W/m2
13:11 12.8 °C 8.7 °C 1010.7 hPa Calm   3.4 km/h 76 % 2.5 mm open2300-1.11 W/m2
14:11 12.3 °C 9.2 °C 1010.0 hPa North 1.8 km/h 4.7 km/h 81 % 2.0 mm open2300-1.11 W/m2
15:11 12.2 °C 9.4 °C 1009.4 hPa Calm   4.7 km/h 83 % 3.6 mm open2300-1.11 W/m2
16:11 12.5 °C 9.7 °C 1009.0 hPa NW 6.4 km/h 6.4 km/h 83 % 0.5 mm open2300-1.11 W/m2
17:11 12.4 °C 9.4 °C 1009.4 hPa NNW 3.4 km/h 8.9 km/h 82 % 0.0 mm open2300-1.11 W/m2
18:11 12.2 °C 9.4 °C 1009.4 hPa NW 5.6 km/h 10.3 km/h 83 % 0.5 mm open2300-1.11 W/m2
19:11 11.1 °C 8.3 °C 1009.7 hPa North 13.2 km/h 33.2 km/h 83 % 1.5 mm open2300-1.11 W/m2
20:11 10.3 °C 7.5 °C 1010.0 hPa NW 38.3 km/h 38.3 km/h 83 % 0.5 mm open2300-1.11 W/m2
21:11 10.1 °C 7.3 °C 1010.7 hPa NNW 9.3 km/h 14 km/h 83 % 0.0 mm open2300-1.11 W/m2
22:11 9.8 °C 7.3 °C 1011.4 hPa NNW 15 km/h 15 km/h 85 % 1.0 mm open2300-1.11 W/m2
23:11 9.6 °C 7.2 °C 1011.1 hPa NNW 6.9 km/h 6.9 km/h 85 % 0.5 mm open2300-1.11 W/m2
Observations météo à CASSIS
WU-History script by Weather Underground - 1 mb